能登空港

2019/05/05

春チャーター 能登空港 2019/5/4 sat

朝の海王埠頭で「ひうち」の課業始めを見てから、能登空港に転戦。

RJNW 040000Z 07009KT 9999 FEW020 17/05 Q1020

20190504_rjnw_00ja8400

やっぱり間に合いませんでした。RW07のファイナルで頭上を通過していきました。

20190504_rjnw_01ja2435

学園はGWも操縦訓練

RJNW 040100Z 11007KT 060V160 CAVOK 18/07 Q1020

20190504_rjnw_02n462al

エアムラボのYSは、完全な置物。

20190504_rjnw_03ja2435

JA2435 SF-25C

20190504_rjnw_04ja8400

たくさんのお見送りに送られてプッシュバック

20190504_rjnw_05ja25mk

おや、モグラ

20190504_rjnw_06ja25mk

JA25MK SF-25

20190504_rjnw_08ja8400

おいおい、何処行くノー

20190504_rjnw_09ja8400

20190504_rjnw_10ja8400

ANA748 RJNW-RJTT JA8400 A320-211

20190504_rjnw_11ja8400

能登はいかがでしたか

RJNW 040200Z 12008KT 050V170 9999 FEW025 18/07 Q1020

20190504_rjnw_12b18610

恒例、ダイナの春チャーター

20190504_rjnw_13b18610

この春は、4/30,5/4,5/8,5/12の予定

20190504_rjnw_14b18610

CAL7592 RCTP-RJNW B-18610 B737-809

20190504_rjnw_15b18610

歓迎の小旗に迎えられて

20190504_rjnw_16b18610

春の北陸を楽しんでください。

20190504_rjnw_17ja25mk

モグラさん、栃木までお帰りぃ

20190504_rjnw_18ja2435

午後も学園は操訓

20190504_rjnw_19ja25mk

JA25MK

20190504_rjnw_20bil

現在、搭乗待合室は、イミグレ中

20190504_rjnw_21bil

ターミナル前の広場では、のとキリシマツツジフェスティバル開催中

20190504_rjnw_22b18610

20190504_rjnw_23arsr

20190504_rjnw_24bil

青天白日満地紅旗が揺れます

RJNW 040200Z 12008KT 050V170 9999 FEW025 18/07 Q1020

20190504_rjnw_25b18610

準備が整って、プッシュバック

20190504_rjnw_26b18610

エンジン・スタート

20190504_rjnw_27b18610

RW07から

20190504_rjnw_28b18610

CAL7593 RJNW-RCTP B-18610 B737-809

20190504_rjnw_29b18610

URUSI ONE DEPARTURE を上昇していきます。

 

| | コメント (0)

2018/10/09

日本航空学園能登航空祭2018 2018/10/7 sun

朝の富山空港から転戦。台風により能登空港の空の日行事は、早々と中止となりましたが、日本航空学園能登空港キャンパスの学園祭=航空祭は昨日に続き開催されています。

RJNW 070000Z 28008KT 250V310 9999 -SHRA BR FEW010 SCT015 BKN020 19/17 Q1014

20181007_rjnw_00jaa

到着時は、まだ雨が降っています。

20181007_rjnw_01ja8946

雨に煙って羽田便到着

20181007_rjnw_02ja8946

20181007_rjnw_03ja8946

ANA747 RJTT-RJNW JA8946 A320-132

RJNW 070100Z 28004KT 240V320 8000 -SHRA BR FEW000 SCT008 BKN010 19/18 Q1015

20181007_rjnw_04n462al

エアロラボのYSとJAXAビーチ

20181007_rjnw_05ja8946

まだ雨は止みそうにありません

20181007_rjnw_06ja8946

ANA748 RJNW-RJTT JA8946 A320-132

RJNW 070200Z 31006KT 250V040 8000 -SHRA FEW003 SCT010 BKN030 20/18 Q1014

20181007_rjnw_07n8061j

11時過ぎて、ようやく少し雲も切れてきました。

20181007_rjnw_08n8061j

午前のエキサイティング・フライトショー

20181007_rjnw_09n8061j

高木雄一氏操る Pitts Special S-2S

20181007_rjnw_10n8061j

離陸してすぐ、お腹・・じゃなくて背中美人

20181007_rjnw_11n8061j

青空が大分広がってきました

20181007_rjnw_12n8061j

ピッツは何機も見ていますが、単座のSは、初めて

20181007_rjnw_13n8061j

20181007_rjnw_14n8061j

20181007_rjnw_15n8061j

20181007_rjnw_16n8061j

20181007_rjnw_17n8061j

20181007_rjnw_18n8061j

20181007_rjnw_19n8061j

高木さんは、ハリアーが好きなのかな・・

20181007_rjnw_20n8061j

20181007_rjnw_21n8061j

20181007_rjnw_22n8061j

基本的なアクロ演目で構成されていたようです。

20181007_rjnw_23n8061j

低いねぇ

20181007_rjnw_24n8061j

残念ながら天候により、お絵かき系は無かったみたい。

20181007_rjnw_25n8061j

20181007_rjnw_26n8061j

20181007_rjnw_27n8061j

20181007_rjnw_28n8061j

ミッション・コンプリート

20181007_rjnw_29n8061j

学園エプロンに戻ります。

20181007_rjnw_30n8061j

降機して、観客の皆さんにハイタッチ

### whitwing681さんの動画 ###

#####

小生は、学園側に移動します。

RJNW 070300Z 30006KT 250V010 9999 FEW010 SCT020 21/16 Q1014

20181007_rjnw_31jaa

退役へりが並んでおります。

20181007_rjnw_32jaa

航空整備コースのステッカー

20181007_rjnw_33ys11

YSは3機とも健在

20181007_rjnw_34ap

いつも空港に退避する一機もいるから、エプロンは芋の子

20181007_rjnw_35n8061j

N8061J S-2S

20181007_rjnw_36n8061j

20181007_rjnw_37n8061j

REMOVE BEFORE FLIGHT

20181007_rjnw_38ja2436

JA2436 SF-25C

20181007_rjnw_39ja9982

格納庫内に新顔 exJA9982

20181007_rjnw_40n462al

N462AL YS-11A-212

20181007_rjnw_41n462al

Nレジなれど日の丸付

20181007_rjnw_42ja774j

JA774J T206H

RJNW 070400Z 32006KT 260V030 9999 VCSH FEW010 SCT020 BKN045 20/15 Q1014

20181007_rjnw_43n8061j

13時を回り、学園フライトはキャンセルとなりましたが、高木さんのショーが始まります。

20181007_rjnw_44n8061j

みんさんに手をふって

20181007_rjnw_45n8061j

いってらっしゃい

20181007_rjnw_46n8061j

20181007_rjnw_47n8061j

NOTO-

20181007_rjnw_48n8061j

雲が多い上に逆光なので、消えますネェ

20181007_rjnw_49n8061j

20181007_rjnw_50n8061j

20181007_rjnw_51n8061j

雲雀飛行

20181007_rjnw_52n8061j

20181007_rjnw_53n8061j

20181007_rjnw_54n8061j

20181007_rjnw_55n8061j

縦系は少ないかな(スモークが栄えないしね)

20181007_rjnw_56n8061j

20181007_rjnw_57n8061j

20181007_rjnw_58n8061j

20181007_rjnw_59n8061j

このスモークはわざと、点で撃ってんの?

20181007_rjnw_60n8061j

20181007_rjnw_61n8061j

ピッツの音に、いろいろ思い出しました。

20181007_rjnw_62n8061j

おかえりぃぃ

20181007_rjnw_63n8061j

GoodJob

20181007_rjnw_64n8061j

20181007_rjnw_65n8061j

20181007_rjnw_66rfa

REDFOX Airshow 

### whitewing681 ###

#####

20181007_rjnw_67toshibou

自衛隊から「としぼう」

20181007_rjnw_68jg

輪島分屯のLAVと地本

RJNW 070500Z VRB05KT 9999 FEW010 SCT020 BKN045 21/16 Q1014

20181007_rjnw_69ja774j

20181007_rjnw_70ja774j

覗いてみたら、グラスだった

20181007_rjnw_71ja774j

スピナーには自分が消えている

20181007_rjnw_72n8061j

こんにちわ してた

20181007_rjnw_73azp

目を引いたステッカー

20181007_rjnw_74n8061j

単座なのでキャノピーがかわいい

20181007_rjnw_75n8061j

急遽、撮影会開催 参戦

RJNW 070600Z 33006KT 280V050 9999 FEW015 SCT045 21/16 Q1014

20181007_rjnw_76ja123t

格納庫にしまわれていたミラージュが出された。

20181007_rjnw_77ja123t

JA123T PA-46-350P Malibu Mirage

20181007_rjnw_78ja8313

学園を離脱して、丘へ

20181007_rjnw_79ja8313

ANA749 RJTT-RJNW JA8313 A320-132

20181007_rjnw_80ja8313

もう陽が傾いてきています。

20181007_rjnw_81ja3933

眼の前にいたパイパーが出発

20181007_rjnw_82ja3933

20181007_rjnw_83ja3933

JA3933 PA-28-181 Archer II

これにて小生もRTB。帰宅はサンセット後になりました。

| | コメント (0) | トラックバック (0)

2018/05/04

春雇 能登空港 2018/5/4 fri

巷はGWなる連休なのですが、なかなか空き時間がない中、ワラビ摂りに誘われて出かけました。

20180504_rjnw_00pl04

道すがらシップチェック PL04「やひこ」

20180504_rjnw_01ps203

PS203「のりくら」

20180504_rjnw_02cl68

CL68「たちかぜ」と高岡消防「やまと」

20180504_rjnw_03amaharashi

4月25日にオープンした道の駅「雨晴」に立ち寄り

20180504_rjnw_04amaharashi

ここにも世界で最も美しい富山湾 湾クラブ

20180504_rjnw_05amaharashi

天皇皇后両陛下御宿泊所記念碑

RJNW 040000Z 19006KT 9999 FEW005 SCT010 FEW015CB BKN050 09/08 Q1009

20180504_rjnw_06ja8947

結構車がありましたが、順調に能登空港に着きました

20180504_rjnw_07ja8947

20180504_rjnw_08ja8947

20180504_rjnw_09ja8947

ANA747 RJTT-RJNW JA8947 A320-211

RJNW 040100Z 20006KT 160V230 9999 FEW010 SCT020 10/09 Q1009

20180504_rjnw_10ja8947

VOR山周辺は、松が伸びすぎて、来年は撮影できないかも・・・

20180504_rjnw_11ja8947

20180504_rjnw_12ja8947

20180504_rjnw_13ja8947

ANA748 RJNW-RJTT JA8947 A320-211

20180504_rjnw_14ja8947

時より雷がなったり、土砂降りになったりの不安定な天候です。

RJNW 040200Z 23012KT 190V260 9999 FEW020 SCT030 BKN/// 12/08 Q1009

20180504_rjnw_15b18652

春チャーターのダイナさん。今年は7往復

20180504_rjnw_16b18652

20180504_rjnw_17b18652

CAL7592 RCTP-RJNW B-18652 B737-8Q8

20180504_rjnw_18b18652

フロントギアがクリーム色の異色なやつ

20180504_rjnw_19b18652

時間がなくて、出発は見送れません。

20180504_rjnw_20endo

夏場所も期待できる「遠藤」さん

あー、夏休みほしー 

今日は富山にGVIが2機も連続で来る、これまた珍しい日。大陸の金持ちは、やることが違うわ・・・

| | コメント (0) | トラックバック (0)

2017/10/16

日本航空学園2017航空祭 能登空港 2017/10/15 sun

輪島市での総合防災訓練を終えて、一路能登空港へ。空の日と日本航空学園航空祭が開催されています。

RJNT 150300Z 04012KT 010V080 9999 VCSH FEW010 SCT020 BKN050 16/12 Q1026

20171015_rjnw_00ja893f

到着早々、なーんだ、893さんいるじゃないですか・・

20171015_rjnw_01ja893f

聞くところによると、デモフライトは実施したとのこと

20171015_rjnw_02ja893f

礼儀正しい、石川県防災航空隊さん

20171015_rjnw_03ja893f

JA893F B412EP 石川県消防防災航空隊「はくさん」

20171015_rjnw_04ja

さて、航空学園に入ります

20171015_rjnw_05jg

地本さんのPRで、14普と23警群。さっきも見たちゃ。

20171015_rjnw_06ja5111

exJA5111 JAXAさん健在です

20171015_rjnw_07ja774j

JA774J C206

20171015_rjnw_08ja5317

JA5317 BE58 OAS

20171015_rjnw_09ja2435

JA2435 SF-25C

20171015_rjnw_10ja2451

JA2451 Valentin Taifun 17E II

20171015_rjnw_11ja4228

JA4228 Christen A-1 Husky

20171015_rjnw_12ja2436

JA2436 SF-25C

20171015_rjnw_13ja6113

強風で学園フライトが無かったので、一人気を吐く遊覧さん

20171015_rjnw_14ja6113

JA6113 B206B JNS

20171015_rjnw_15ja8777

20171015_rjnw_16ja8777

ラッキーYS

RJNT 150400Z 04009KT 340V100 9999 VCSH FEW010 SCT020 BKN040 17/12 Q1025

20171015_rjnw_17jg11210

陸自のL-19も綺麗です

20171015_rjnw_18fcv

20171015_rjnw_19fcv

能登空港の消防車が展示に加わりました。

RJNT 150500Z 03011KT 360V070 9999 -SHRA FEW010 BKN020 BKN040 17/12 Q1025

20171015_rjnw_21ja5317

14時を過ぎて、岡山航空さんが帰投です。

20171015_rjnw_22ja5317

お手振りでお見送り・・・

20171015_rjnw_23ja5317

JA5317

20171015_rjnw_24ja5317

今年も、なんかやってくれるかなぁ?

20171015_rjnw_25ja5317

キター

20171015_rjnw_26ja5317

ハイレイト&フリフリ

### whitewing681さんの動画 ###

######

20171015_rjnw_27fcv

消防車帰投時に放水デモ

20171015_rjnw_28fcv

飛びます、飛びます・・・

20171015_rjnw_29fcv

扇のように広げて、展示終了。

小生も、寒さに負けて、定期便も見ずに撤収です。来年は、フライトが出来ますように。

| | コメント (0) | トラックバック (0)

2017/05/11

寄道 能登空港 2017/5/10 wed

輪島港の「うみたか」見学の帰り道。能登空港に寄道。

RJNW 100000Z 12003KT 9999 FEW001 SCT030 BKN040 15/14 Q1009

20170510_rjnw_00ja8313

20170510_rjnw_01ja8313

20170510_rjnw_02ja8313

20170510_rjnw_03ja8313

20170510_rjnw_04ja8313

ANA747 RJTT-RJNT JA8313 A320-211

RJNW 100100Z 13003KT 080V170 9999 FEW003 SCT030 BKN050 16/14 Q1009

20170510_rjnw_05ja121c

JA121C PA-46-350P

20170510_rjnw_06wje

さて仮設輪島VOR/DMEの建設状況は・・

20170510_rjnw_07wje

アンテナが付いて、ケーブル作業中。手前、モニターアンテナは一基だけなのね。

20170510_rjnw_08ja8313

20170510_rjnw_09ja8313

20170510_rjnw_10ja8313

20170510_rjnw_11ja8313

ANA748 RJNW-RJTT JA8313 A320-211

20170510_rjnw_12ja8313

背風よりでしたが、RW07離陸でした。

さて、本日3つ目のミッションへ転進です。

RJNW 100200Z 20005KT 170V240 9999 FEW030 SCT050 BKN070 19/14 Q1009

| | コメント (0) | トラックバック (0)

2017/04/28

茶緑 能登空港 2017/4/28 fri

すっかり日の出も早くなって、5時にはもう明るい青空が拝めます。年寄りは早起き、イヤイヤ遠足前の子供の様なもの・・・

RJNW 272300Z 21005KT 140V230 9999 FEW020 11/07 Q1008

20170428_rjnw_00rjnw

ひゃくまんさん に、おはよう

20170428_rjnw_01rjnw

空港ビルも、ようやく開店

20170428_rjnw_02rjnw

成績がイマイチの遠藤関も2体で、お出迎え

RJNW 280000Z 21008KT 170V260 9999 FEW030 13/03 Q1008

20170428_rjnw_04rjnw

きのこが特徴の、春の能登空港にやって来ました。

20170428_rjnw_05n858gt

PAC947 PANC-VHHH N858GT B747-87UF

みあげれば、青空にエンルート機が良く見えます。

20170428_rjnw_06ja8400

羽田からの午前便が、やってきた

20170428_rjnw_07ja8400

20170428_rjnw_08ja8400

20170428_rjnw_09ja8400

ANA747 RJTT-RJNW JA8400 A320-211

20170428_rjnw_10ja8400

お出迎えも閑散としています。

RJNW 280100Z 25008KT 180V300 9999 FEW030 14/02 Q1008

20170428_rjnw_11ja8400

20170428_rjnw_12ja8400

20170428_rjnw_13ja8400

ANA748 RJNW-RJTT JA8400 A320-211

20170428_rjnw_14ja8400

世の中、明日からGWらしいです。

RJNW 280200Z 24008KT 200V280 9999 FEW030 SCT040 16/05 Q1008

20170428_rjnw_15ja08fj

おや、見慣れない色の飛行機が、やってきた

20170428_rjnw_16ja08fj

ティーグリーンって、言うがや茶

20170428_rjnw_17ja08fj

FDA6493 RJSS-RJNW JA08FJ ERJ-175STD

20170428_rjnw_18ja08fj

学園の生徒でいっぱいです。

### whitewing681 ###

#####

20170428_rjnw_19ja08fj

なんか、手作り感満載のトーバー

20170428_rjnw_20ja08fj

グランドスタッフも興味深々

20170428_rjnw_21wje

仙台からお客さんを運んで、能登からは熊本へのチャーターです。

20170428_rjnw_22wje

エプロン横の草地では・・・

20170428_rjnw_23wje

大方の骨組みが組みあがった状態

20170428_rjnw_24nte

能登VOR/DMEが始めての更新工事の予定で・・・

RJNW 280300Z 23012KT 9999 FEW030 SCT040 16/05 Q1007

20170428_rjnw_25ja08fj

きっと熊本では、くまモンが出迎えて・・ くれるのかな

20170428_rjnw_26ja08fj

20170428_rjnw_27ja08fj

20170428_rjnw_28ja08fj

20170428_rjnw_29ja08fj

FDA6482 RJNW-RJFT JA08FJ ERJ-175STD

20170428_rjnw_30ja08fj

帰りは、30日の夕方

20170428_rjnw_31wje

能登VOR/DMEの代替は、輪島VOR/DME

20170428_rjnw_32wje

設備一式は、これらのコンテナに収納されている。

RJNW 280500Z 24015KT 210V270 9999 FEW030 17/07 Q1006
RJNW 280400Z 22012KT 9999 FEW030 SCT040 15/05 Q1007

20170428_rjnw_33pat

なんがーい昼休みの間にあっと驚く、最新ツール。ドローンでなにやら・・・

RJNW 280600Z 24015KT 9999 FEW030 17/06 Q1005

20170428_rjnw_34fvc

いつもの丘で午後便を待っていると・・・

20170428_rjnw_35fvc

配置につきましたー

20170428_rjnw_36terminal

送迎デッキは、人だかり・・ なんだ、なんだこの騒ぎは・・

20170428_rjnw_37ja112a

見えてきました。能登空港初飛来のA321が、やってきた

20170428_rjnw_38ja112a

機材大型化 ですね。

20170428_rjnw_39ja112a

後ろの方にボコがついています。

20170428_rjnw_40ja112a

ANA759 RJTT-RJNW JA112A A321-211

20170428_rjnw_41ja112a

新しい機体は、綺麗やねー

20170428_rjnw_42fcv

おっと、水撒き

20170428_rjnw_43ja112a

綺麗な機体は、より綺麗に・・・

20170428_rjnw_44ja112a

今じゃ、どこでも、なんでもウォーターキャノン

20170428_rjnw_45ja112a

ん、こう見ると、能登空港には、でかい

### whinte681 さんの動画 ###

#####

20170428_rjnw_46ja112a

見送りは、山の上から

RJNW 280700Z 22011KT 9999 FEW030 16/04 Q1005

20170428_rjnw_47ja112a

学園も明日からGWなのかな・・ 山にも一杯見学に来た。

20170428_rjnw_48ja112a

パイロットさんと記念撮影

20170428_rjnw_49ja112a

明日も午後便は、A321

20170428_rjnw_50ja112a

20170428_rjnw_51ja112a

20170428_rjnw_52ja112a

20170428_rjnw_53ja112a

20170428_rjnw_54ja112a

ANA750 RJNW-RJTT JA112A A321-211

20170428_rjnw_55ja112a

利用客が増えて、通常で入るようになるとイイですね。

20170428_rjnw_56ja112a

また、逢いましょう・・・ ヤァヤァヤァ

RJNW 280800Z 23013KT 9999 FEW030 15/04 Q1005

| | コメント (0) | トラックバック (0)

2016/10/15

日本航空学園航空祭2 能登空港 2016/10/9 sun

遅くなりましたが、能登空港そらの日&日本航空学園航空祭の続き・・ 午後は、学園内に移動して、学祭をチョッコッとかじってみます。

RJNW 090400Z 33007KT 290V020 9999 -SHRA FEW015 SCT030 BKN040 15/13 Q1013

20161009_rjnw_050welcome

学園はいろんなイベントを実施中。毎年マスコミも報道しますね。

20161009_rjnw_051ja007e

exJA007E MH2000A

20161009_rjnw_052t0155530

ex01-5530 T-3

20161009_rjnw_053ja5111

exJA5111 Beechcraft 65 Queen Air

20161009_rjnw_054ja774j

JA774J Cessna T206H Turbo Stationair

20161009_rjnw_055ja2451

JA2451 Valentin Taifun 17E II

20161009_rjnw_056ja14wp

格納庫内に内海さん

20161009_rjnw_057ja14wp

JA14WP Extra EA-300L

20161009_rjnw_058ja01mw

JA01MW Pitts S-2C Special

20161009_rjnw_059ja4228

JA4228 Christen A-1 Husky

20161009_rjnw_060ja3495

JA3495 Fuji FA-200-160 Aero Subaru

20161009_rjnw_061ja893f

JA893F B412P 石川県消防防災

お昼に救難展示を行った防災さんが帰投です。

20161009_rjnw_062ja6113

JA6113 Bell 206B JetRanger III

20161009_rjnw_063fvc

合間に空港消防車が展示にやってきました。

20161009_rjnw_064ja01mw

アクロ機がエプロンに引き出されて、しばらく展示されます。

20161009_rjnw_065ja14wp

日本で代表的なピッツとエクストラのツーショット

RJNW 090500Z 32007KT 260V360 9999 FEW020 SCT035 17/12 Q1014

20161009_rjnw_066jg1210

草地には学園の教材機が展示されているのですが、グヅグヅで・・

20161009_rjnw_067ja01mw

午後のピッツ飛行展示です。航空学園出身の高木さんが披露します。

20161009_rjnw_068ja01mw

ロックさん以来のピッツのアクロを拝見します。(午前も見たか・・)

20161009_rjnw_069ja01mw

学園エプロンを出て、最終ランナップ

RJNW 090600Z 32008KT 280V020 9999 FEW020 SCT060 16/11 Q1014

20161009_rjnw_070ja01mw

ブウィィィーン

20161009_rjnw_071ja01mw

20161009_rjnw_072ja01mw

お月さん、見てる

20161009_rjnw_073ja01mw

20161009_rjnw_074ja01mw

20161009_rjnw_075ja01mw

20161009_rjnw_076ja01mw

縁結びぃぃ

20161009_rjnw_077ja01mw

20161009_rjnw_078ja01mw

20161009_rjnw_079ja01mw

20161009_rjnw_080ja01mw

20161009_rjnw_081ja01mw

20161009_rjnw_082ja01mw

アメリカンアクロの常なのか、この後観客を握手で廻られました。

20161009_rjnw_083ja8777

exJA8777 NAMC YS-11A-500

学園を出て、エプロンに疎開中のYSさんを

20161009_rjnw_084ja8400

定期便の到着。クロスが強いので、丘から見ると正対しています。

20161009_rjnw_085ja8400

20161009_rjnw_086ja8400

20161009_rjnw_087ja8400

ふくろうの測定板が、まだ設置してあります。

20161009_rjnw_088ja8400

ANA749 RJTT-RJNW JA8400 A321-211

RJNW 090700Z 32009KT 260V060 9999 FEW020 SCT060 15/11 Q1014

20161009_rjnw_089ja3495

JA3495 西陽を浴びて帰投です。

20161009_rjnw_090ja8400

20161009_rjnw_091ja8400

20161009_rjnw_092ja8400

20161009_rjnw_093ja8400

20161009_rjnw_094ja8400

ANA750 RJNW-RJTT JA8400 A320-211

20161009_rjnw_095ja01mw

この時間から帰投するのかなぁ・・ と、思いきや上空でアクロ訓練フライトの模様。

RJNW 091000Z VRB02KT 9999 FEW020 12/10 Q1016

これにて航空祭は、おしまいです。この日は、この後スペシャルな催しが・・

20161009_rjnw_100nsaan

陸の孤島の能登空港です。夜などお店等空いてません

20161009_rjnw_101nsaan

まずは、「はざ干しごはんと能登の秋」御膳で、腹ごしらえ

20161009_rjnw_102nsaan

これから「のと里山空港アートナイト」なる撮影イベントが夜の滑走路で行われます。正直、これがなんなのかよく理解していないのですが、夜の滑走路に入れるだけで、参加しています。

20161009_rjnw_103ja8777

exJA8777

基本撮影禁止なのですが、一部撮影できるポイントがあり、スマホで撮影。

20161009_rjnw_104ja8777

月夜のYSです。

20161009_rjnw_105rwl

誘導路灯に導かれて滑走路へ向かいます。

20161009_rjnw_106rwl

滑走路では、灯火が眩しくて・・ イベント模様は撮影できません。その内、プロモーションビデオが公開されると思うので、どんなんなってるか期待しています。

| | コメント (0) | トラックバック (0)

2016/10/10

日本航空学園航空祭 能登空港 2016/10/9 sun

前日からの雨が、かなり降りしきる中、早朝から一路能登へ。空の日のイベントと航空学園の航空祭+αで、お出かけです。

20161009_rjnw_00rjnw

朝方にとりあえず雨は止んで、ひとまず天候回復を期待します。

20161009_rjnw_01ja2436

JA2436 Scheibe SF-25C Falke

8時半に天候調査を兼ねたオープニングフライトが開始されました。

20161009_rjnw_02ja774j

JA774J C206

RJNW 090000Z 27004KT 230V290 9999 FEW000 SCT040 BKN070 18/16 Q1011

20161009_rjnw_03rjnw

定期便前には管理事務所の滑走路点検

20161009_rjnw_04ja6113

JA6113 B206B JNS

今年もめーいっぱい遊覧飛行に活躍するよ。

20161009_rjnw_05ja8946

20161009_rjnw_06ja8946

ANA747 RJTT-RJNW JA8946 A320-211

20161009_rjnw_07ja8946

空の日恒例、ウォーターキャノン

20161009_rjnw_08ja8946

もう、のとウォッシュラック状態です。

RJNW 090100Z 31006KT 260V360 9999 FEW020 SCT030 BKN/// 18/16 Q1012

20161009_rjnw_09ja14wp

10時を廻って、内海さんがクロカンでやってきました。

20161009_rjnw_10ja14wp

JA14WP EA-300L

20161009_rjnw_11ja6113

時間があれば、遊覧は飛んでいます。

20161009_rjnw_12ja8946

20161009_rjnw_13ja8946

丁度、空港内バスツアーのバスが通ります

20161009_rjnw_14ja8946

ANA748 RJNW-RJTT JA8946 A320-211

RJNW 090200Z 32006KT 230V020 9999 FEW015 SCT030 BKN/// 17/15 Q1012

20161009_rjnw_15ja774j

11時を過ぎて、エキサイティングフライトショーの始まり、始まり。

20161009_rjnw_16ja2436

学園機が連続離陸でフォーメーションフライトに飛び立ちます。

JA2436 JA2435

20161009_rjnw_17ja2435

20161009_rjnw_18ja4228

JA4228 JA2451

20161009_rjnw_19ja774j

JA774J

20161009_rjnw_20ja6113

JA6113

20161009_rjnw_21mf

空港西側から大編隊で航過飛行

20161009_rjnw_22mf

トリは、へり

20161009_rjnw_23ja2451

JA2451 Valentin Taifun 17E II

モグラが機動飛行を披露

20161009_rjnw_24mf

レベルオープナーに向けて、進入ー

20161009_rjnw_25mf

ブレイク、ナウ

20161009_rjnw_26ja2436

編隊解散して、各機着陸態勢の入ります

20161009_rjnw_27ja4228

JA4228 Christen A-1 Husky

20161009_rjnw_28ja01mw

この機体は初めて見るピッツです。

20161009_rjnw_29ja01mw

JA01MW Pitts S-2C Special

20161009_rjnw_30ja01mw

航空学園の卒業生で米国でアクロバットライセンスを持っている高木雄一氏による、アクロバット飛行。

20161009_rjnw_31ja01mw

上空高くから、ショータイム

20161009_rjnw_32ja01mw

久しぶりにピッツのエンジン音を聞きました。

20161009_rjnw_33ja01mw

20161009_rjnw_34ja01mw

20161009_rjnw_35ja01mw

20161009_rjnw_36ja01mw

20分ほどの素晴らしいフライトを披露されました。

RJNW 090300Z 32009G21KT 9999 VCSH FEW015 SCT/// 18/14 Q1012

20161009_rjnw_37ja893f

JA893F B412EP 石川県消防防災

続いて、石川県消防防災へり「はくさん」が小松から到着。

20161009_rjnw_38ja893f

一度着陸して、救難展示の準備

20161009_rjnw_39ja893f

まずは空港エプロンで、救難員が吊り上げで救助の模様を

20161009_rjnw_40ja893f

収容

20161009_rjnw_41rjnw

へりが次の演目に移る間に、エプロンでは空港消防車による放水デモ

20161009_rjnw_42ja893f

学園エプロン前に移動して、ストレッチャーでの救助デモ

20161009_rjnw_43ja893f

手際よく収容されて、デモは終了

20161009_rjnw_44ja893f

空港エプロンに戻って、しばらくシエスタ

20161009_rjnw_45ja14wp

内海さん飛ぶ・・

20161009_rjnw_46ja14wp

アクロ披露かな・・・ と、思ったら空港沖合いで訓練の模様でした。

その2に続く・・・

| | コメント (0) | トラックバック (0)

2016/03/31

門出 能登空港 2016/3/31 thu

年度末の3月31日。本日をもって、能登空港・航空路監視レーダー事務所は廃止され、飛行場対空援助業務から飛行場リモート対空援助業務へ変更されます。

3月に入って、何度も通っている能登空港ですが、三菱の告知では、3月中に能登空港でMRJの試験を行うとなっていた。今日が最後ですがや・・ と、天候と相談すると、行くのは今でしょ・・ ってことで、今月4回目の能登空港です。

RJNW 300000Z 22011KT 9999 FEW030 SCT035 BKN070 12/05 Q1018

20160331_rjnw_00noto

立派なタワーですが、リモート用のアンテナも準備されて・・ 最後の日です。

20160331_rjnw_01ja8300

名古屋上がったよ・・ の情報に接しながら、まずは定期便を待ちます。

20160331_rjnw_02ja8300

20160331_rjnw_03ja8300

20160331_rjnw_04ja8300

ANA747 RJTT-RJNT JA8300 A320-211

20160331_rjnw_05ja21mj

9時50分過ぎ、北からライトターンでファィナルに入ってくるところをインサイト

20160331_rjnw_06ja21mj

20160331_rjnw_07ja21mj

キャー、飛んでるMRJ見るの、初めて!

20160331_rjnw_08ja21mj

JA21MJ MRJ-90STD MAJ

20160331_rjnw_09gakuen

日本航空学園の生徒と一緒にYSも見ているヨ

RJNW 300100Z 22015KT 9999 FEW030 SCT035 BKN070 14/05 Q1018

20160331_rjnw_10ja21mj

2パス目

20160331_rjnw_11ja21mj

3パス目

20160331_rjnw_12ja21mj

4パス目

20160331_rjnw_13ja21mj

5パス目

20160331_rjnw_14ja21mj

20160331_rjnw_15ja21mj

6パス目 エンジンはプラット&ホイットニー

20160331_rjnw_16ja21mj

20160331_rjnw_17ja21mj

7パス目

20160331_rjnw_18ja21mj

8パス目

20160331_rjnw_19ja21mj

9パス目

20160331_rjnw_20ja21mj

20160331_rjnw_21ja21mj

10パス目

20160331_rjnw_22ja8300

ここで定期便を出発させます。MRJは、空港から離れてホールディング。

20160331_rjnw_23ja8300

20160331_rjnw_24ja8300

ANA748 RJNW-RJTT JA8300 A320-211

RJNW 300200Z 23018KT 9999 FEW030 SCT035 BKN040 13/06 Q1017

20160331_rjnw_25ja21mj

11パス目

20160331_rjnw_26ja21mj

ノーマルダウンウインドから、ギアダウンしてローパス

20160331_rjnw_27ja21mj

12回目

20160331_rjnw_28v

上空では、エンルートで V の字を作ってくれました。

20160331_rjnw_29ja21mj

ラストラン

20160331_rjnw_30ja21mj

20160331_rjnw_31ja21mj

13パス目

20160331_rjnw_32ja21mj

そのまま、ダウンウインドを経由して北に抜けて小松経由で名古屋にお帰りになった模様です。今度は、着陸してくださいネ。

20160331_rjnw_33noto

RJNW 300300Z 23020G31KT 9999 FEW020 SCT030 BKN040 15/07 Q1017

能登レディオご苦労さまでした。今日は、学園フライトが無さそうなので、午後の定期便ANA750がレディオとしては最後になるのかな。明日からは、リモートで中部からコンタクトされます。

***** whitewing681 さんの動画 *****

*****

| | コメント (0) | トラックバック (0)

2016/03/25

まれ 能登空港 2016/3/25 fri

昨日のMr.Jのフライトから、多少天候が悪くても飛来する可能性があると考え、朝から動向を監視していた。飛ぶと分かってからでは、どう努力しても能登には間に合わないので、途中まで前進して待機することにした。

RJNT 240100Z VRB03KT 9999 VCSH FEW010 SCT030 08/00 Q1019

20160325_rjnt_00ja84an

ANA313 RJTT-RJNT JA84AN B737-881

おかげで、河原に行く暇なし。今日もMr.Jが動きそうだとの情報で、進出開始。情報チェックの合間に、一枚記録。この段階で、氷見まで進出することに。

氷見について、情報取得していると、あの方は、南の方にいってしまうそうで、残念。ですが、ナ、ナ、ナナナ まれに来る3Gが小松進出中。これは、行くしかない。俄然元気が出て驀進します。

RJNW 250300Z 33005KT 9999 VCSH FEW020 SCT045 BKN050 06/M02 Q1021

20160325_rjnw_01ja003g

当然、着陸には間に合わない訳ですけれど、お昼休みに到着。くぅー、カッチョイイ。

20160325_rjnw_02ja003g

手前の雪山も大分解けて、脚も見えるように。

20160325_rjnw_03ja003g

撮れる所は、どこでも・・

20160325_rjnw_04ja003g

搭乗の皆さんは、ターミナルで楽しい昼食の模様。

RJNW 250400Z 33006KT 250V060 9999 VCSH FEW020 SCT045 BKN050 06/M03 Q1021

20160325_rjnw_05car

お昼のランウェイチェックが入って・・

20160325_rjnw_06ja003g

いよいよエンジンスタート。右エンジンが起動した後は、チョークを外して・・

20160325_rjnw_07ja003g

乗り込んで、左エンジン始動です。

20160325_rjnw_08ja003g

JA003G SB20 CAB

20160325_rjnw_09ja003g

今回はILSと灯火の検査の模様。先行していた斥候さんから、午前の内容を教授され。

20160325_rjnw_10ja003g

能登VOR/DMEとチェックスター3

20160325_rjnw_11ja003g

20160325_rjnw_12ja003g

RW07を離陸して、ノッピーからインバンドの予定

20160325_rjnw_13ja003g

最初は、DA付近でレフトブレイク

20160325_rjnw_14ja003g

再度進入して、レベルランです。ひくぅぅー!

20160325_rjnw_15ja003g

七尾湾をバックに、美しい機体です。

20160325_rjnw_16ja003g

上昇して、アークフライトをして帰る模様です。

20160325_rjnw_17ja003g

来週から無人化(リモート化)される能登空港タワーのバックを飛行。

RJNW 250400Z 33006KT 250V060 9999 VCSH FEW020 SCT045 BKN050 06/M03 Q1021

20160325_rjnw_18ja003g

能登VOR直上をヒットしてセントレアへ帰っていった。また来てくださいね。

ところで、肝心のMr.Jですが、これからしばらく行けそうにないので、他の皆さんの健闘を祈ります。

***** whitewing681 さんの動画 *****

*****

| | コメント (0) | トラックバック (0)

より以前の記事一覧

その他のカテゴリー

BI Boading record aircraft Boading record ship FlightTracking lighthouse NAVAIDS RJNT LOG SKY MASSAGE US NAVY USMC うみ おか そら てつ アクシデント エアロック チーム室屋 三沢飛行場 上五島空港 下地島空港 下総飛行場 与那国空港 中標津空港 中部国際空港 久米島空港 五島福江空港 仙台空港 伊江島空港 但馬空港 佐賀空港 入間飛行場 八尾空港 八戸飛行場 出雲空港 函館空港 利尻空港 北九州空港 十勝飛行場 千歳飛行場 博物館 厚木飛行場 名古屋飛行場 喜界空港 嘉手納飛行場 場外 壱岐空港 大分空港 大湊飛行場 大阪国際空港 大館能代空港 天草空港 奄美空港 奥尻空港 宇部山口空港 宇都宮飛行場 宮古空港 宮崎空港 富山空港 小松島飛行場 小松飛行場 屋久島空港 山形空港 岐阜飛行場 岡山空港 岩国飛行場 帯広空港 広島空港 庄内空港 徳之島空港 徳島飛行場 成田国際空港 新潟空港 新田原飛行場 旭川空港 旭川飛行場 明野飛行場 普天間飛行場 木更津飛行場 札幌飛行場 東京国際空港 松山空港 松島飛行場 松本空港 横田飛行場 沖永良部空港 波照間空港 浜松飛行場 海上保安庁 海上自衛隊 海外 熊本空港 百里飛行場 相馬原飛行場 石垣空港 石見空港 礼文空港 神戸空港 福井空港 福岡空港 福島空港 秋田空港 種子島空港 空撮 立川飛行場 築城飛行場 美保飛行場 能登空港 舞鶴飛行場 航空自衛隊 芦屋飛行場 花巻空港 調布飛行場 警務消防 那覇空港 釧路空港 長崎空港 関西国際空港 陸上自衛隊 隠岐空港 霞ヶ浦飛行場 霞目飛行場 青森空港 静岡空港 静浜飛行場 飛行場跡 飛行船 鹿児島空港 鹿屋飛行場